sensor_id;sensor_type;location;lat;lon;timestamp;P1;durP1;ratioP1;P2;durP2;ratioP2
25231;SDS011;13176;51.140;6.290;2022-12-18T00:01:17;17.70;;;14.55;;
25231;SDS011;13176;51.140;6.290;2022-12-18T00:03:46;20.50;;;15.90;;
25231;SDS011;13176;51.140;6.290;2022-12-18T00:06:14;20.83;;;15.90;;
25231;SDS011;13176;51.140;6.290;2022-12-18T00:08:41;22.67;;;15.70;;
25231;SDS011;13176;51.140;6.290;2022-12-18T00:11:10;20.10;;;15.43;;
25231;SDS011;13176;51.140;6.290;2022-12-18T00:13:38;22.10;;;15.85;;
25231;SDS011;13176;51.140;6.290;2022-12-18T00:16:06;19.50;;;15.82;;
25231;SDS011;13176;51.140;6.290;2022-12-18T00:18:36;26.13;;;16.35;;
25231;SDS011;13176;51.140;6.290;2022-12-18T00:21:04;25.27;;;16.55;;
25231;SDS011;13176;51.140;6.290;2022-12-18T00:23:33;23.23;;;17.20;;
25231;SDS011;13176;51.140;6.290;2022-12-18T00:26:01;21.48;;;16.55;;
25231;SDS011;13176;51.140;6.290;2022-12-18T00:28:30;21.00;;;16.35;;
25231;SDS011;13176;51.140;6.290;2022-12-18T00:33:26;21.98;;;16.70;;
25231;SDS011;13176;51.140;6.290;2022-12-18T00:35:53;23.65;;;16.50;;
25231;SDS011;13176;51.140;6.290;2022-12-18T00:38:19;21.33;;;15.82;;
25231;SDS011;13176;51.140;6.290;2022-12-18T00:40:46;21.73;;;15.18;;
25231;SDS011;13176;51.140;6.290;2022-12-18T00:43:12;22.42;;;15.45;;
25231;SDS011;13176;51.140;6.290;2022-12-18T00:45:39;23.85;;;16.35;;
25231;SDS011;13176;51.140;6.290;2022-12-18T00:48:05;21.50;;;15.70;;
25231;SDS011;13176;51.140;6.290;2022-12-18T00:50:32;17.58;;;15.25;;
25231;SDS011;13176;51.140;6.290;2022-12-18T00:52:58;21.30;;;16.48;;
25231;SDS011;13176;51.140;6.290;2022-12-18T00:55:25;17.58;;;14.57;;
25231;SDS011;13176;51.140;6.290;2022-12-18T00:57:51;22.88;;;15.77;;
25231;SDS011;13176;51.140;6.290;2022-12-18T01:00:18;22.20;;;15.73;;
25231;SDS011;13176;51.140;6.290;2022-12-18T01:02:45;23.00;;;15.27;;
25231;SDS011;13176;51.140;6.290;2022-12-18T01:05:12;21.23;;;15.32;;
25231;SDS011;13176;51.140;6.290;2022-12-18T01:07:39;19.88;;;15.65;;
25231;SDS011;13176;51.140;6.290;2022-12-18T01:10:06;22.40;;;15.65;;
25231;SDS011;13176;51.140;6.290;2022-12-18T01:12:33;22.73;;;15.25;;
25231;SDS011;13176;51.140;6.290;2022-12-18T01:15:00;18.38;;;14.73;;
25231;SDS011;13176;51.140;6.290;2022-12-18T01:17:27;22.13;;;16.02;;
25231;SDS011;13176;51.140;6.290;2022-12-18T01:19:53;19.65;;;15.18;;
25231;SDS011;13176;51.140;6.290;2022-12-18T01:22:19;21.88;;;15.88;;
25231;SDS011;13176;51.140;6.290;2022-12-18T01:24:46;21.92;;;15.57;;
25231;SDS011;13176;51.140;6.290;2022-12-18T01:27:12;18.42;;;15.50;;
25231;SDS011;13176;51.140;6.290;2022-12-18T01:29:39;19.40;;;14.75;;
25231;SDS011;13176;51.140;6.290;2022-12-18T01:32:05;18.73;;;15.65;;
25231;SDS011;13176;51.140;6.290;2022-12-18T01:34:31;20.02;;;15.65;;
25231;SDS011;13176;51.140;6.290;2022-12-18T01:36:58;20.27;;;15.02;;
25231;SDS011;13176;51.140;6.290;2022-12-18T01:39:24;17.58;;;14.73;;
25231;SDS011;13176;51.140;6.290;2022-12-18T01:41:51;18.45;;;14.93;;
25231;SDS011;13176;51.140;6.290;2022-12-18T01:50:03;19.33;;;14.10;;
25231;SDS011;13176;51.140;6.290;2022-12-18T01:52:34;17.35;;;14.02;;
25231;SDS011;13176;51.140;6.290;2022-12-18T01:55:06;18.80;;;14.95;;
25231;SDS011;13176;51.140;6.290;2022-12-18T01:57:34;17.75;;;13.50;;
25231;SDS011;13176;51.140;6.290;2022-12-18T02:00:03;18.52;;;14.07;;
25231;SDS011;13176;51.140;6.290;2022-12-18T02:02:33;20.25;;;14.82;;
25231;SDS011;13176;51.140;6.290;2022-12-18T02:04:59;21.15;;;14.45;;
25231;SDS011;13176;51.140;6.290;2022-12-18T02:07:32;21.50;;;14.70;;
25231;SDS011;13176;51.140;6.290;2022-12-18T02:10:27;19.67;;;13.30;;
25231;SDS011;13176;51.140;6.290;2022-12-18T02:13:14;18.23;;;13.18;;
25231;SDS011;13176;51.140;6.290;2022-12-18T02:18:33;16.92;;;13.55;;
25231;SDS011;13176;51.140;6.290;2022-12-18T02:23:54;19.85;;;12.95;;
25231;SDS011;13176;51.140;6.290;2022-12-18T02:26:34;16.73;;;14.05;;
25231;SDS011;13176;51.140;6.290;2022-12-18T02:29:05;23.52;;;13.85;;
25231;SDS011;13176;51.140;6.290;2022-12-18T02:31:37;17.73;;;14.23;;
25231;SDS011;13176;51.140;6.290;2022-12-18T02:34:16;19.73;;;14.10;;
25231;SDS011;13176;51.140;6.290;2022-12-18T02:36:45;18.50;;;14.52;;
25231;SDS011;13176;51.140;6.290;2022-12-18T02:39:14;17.38;;;14.02;;
25231;SDS011;13176;51.140;6.290;2022-12-18T02:41:41;21.63;;;14.27;;
25231;SDS011;13176;51.140;6.290;2022-12-18T02:44:11;18.17;;;14.38;;
25231;SDS011;13176;51.140;6.290;2022-12-18T02:46:40;19.30;;;13.43;;
25231;SDS011;13176;51.140;6.290;2022-12-18T02:51:47;21.58;;;14.32;;
25231;SDS011;13176;51.140;6.290;2022-12-18T02:54:21;20.52;;;13.88;;
25231;SDS011;13176;51.140;6.290;2022-12-18T02:57:15;20.65;;;13.77;;
25231;SDS011;13176;51.140;6.290;2022-12-18T02:59:54;17.70;;;13.73;;
25231;SDS011;13176;51.140;6.290;2022-12-18T03:02:36;17.60;;;14.02;;
25231;SDS011;13176;51.140;6.290;2022-12-18T03:07:47;17.05;;;13.43;;
25231;SDS011;13176;51.140;6.290;2022-12-18T03:10:20;17.90;;;13.27;;
25231;SDS011;13176;51.140;6.290;2022-12-18T03:12:54;18.35;;;13.63;;
25231;SDS011;13176;51.140;6.290;2022-12-18T03:15:28;21.67;;;13.85;;
25231;SDS011;13176;51.140;6.290;2022-12-18T03:18:01;18.80;;;13.68;;
25231;SDS011;13176;51.140;6.290;2022-12-18T03:20:31;16.60;;;13.00;;
25231;SDS011;13176;51.140;6.290;2022-12-18T03:23:03;18.90;;;14.25;;
25231;SDS011;13176;51.140;6.290;2022-12-18T03:25:35;20.73;;;14.45;;
25231;SDS011;13176;51.140;6.290;2022-12-18T03:28:05;20.50;;;14.55;;
25231;SDS011;13176;51.140;6.290;2022-12-18T03:30:34;15.57;;;13.70;;
25231;SDS011;13176;51.140;6.290;2022-12-18T03:33:08;16.02;;;13.60;;
25231;SDS011;13176;51.140;6.290;2022-12-18T03:35:39;18.80;;;13.18;;
25231;SDS011;13176;51.140;6.290;2022-12-18T03:38:08;15.52;;;13.10;;
25231;SDS011;13176;51.140;6.290;2022-12-18T03:40:43;18.92;;;13.70;;
25231;SDS011;13176;51.140;6.290;2022-12-18T03:46:15;17.95;;;13.90;;
25231;SDS011;13176;51.140;6.290;2022-12-18T03:48:52;16.48;;;13.25;;
25231;SDS011;13176;51.140;6.290;2022-12-18T03:51:48;20.52;;;14.63;;
25231;SDS011;13176;51.140;6.290;2022-12-18T03:54:17;18.77;;;14.07;;
25231;SDS011;13176;51.140;6.290;2022-12-18T03:56:47;17.85;;;13.90;;
25231;SDS011;13176;51.140;6.290;2022-12-18T03:59:19;18.83;;;13.57;;
25231;SDS011;13176;51.140;6.290;2022-12-18T04:01:49;19.00;;;13.60;;
25231;SDS011;13176;51.140;6.290;2022-12-18T04:04:19;16.83;;;14.77;;
25231;SDS011;13176;51.140;6.290;2022-12-18T04:06:46;19.60;;;14.25;;
25231;SDS011;13176;51.140;6.290;2022-12-18T04:09:15;18.13;;;14.25;;
25231;SDS011;13176;51.140;6.290;2022-12-18T04:11:42;16.75;;;14.20;;
25231;SDS011;13176;51.140;6.290;2022-12-18T04:14:10;21.65;;;14.68;;
25231;SDS011;13176;51.140;6.290;2022-12-18T04:16:43;19.15;;;14.63;;
25231;SDS011;13176;51.140;6.290;2022-12-18T04:19:09;16.60;;;13.65;;
25231;SDS011;13176;51.140;6.290;2022-12-18T04:21:36;17.73;;;13.65;;
25231;SDS011;13176;51.140;6.290;2022-12-18T04:24:02;20.60;;;14.90;;
25231;SDS011;13176;51.140;6.290;2022-12-18T04:26:29;18.55;;;15.05;;
25231;SDS011;13176;51.140;6.290;2022-12-18T04:28:55;21.67;;;15.60;;
25231;SDS011;13176;51.140;6.290;2022-12-18T04:31:21;16.88;;;14.63;;
25231;SDS011;13176;51.140;6.290;2022-12-18T04:33:48;21.08;;;14.55;;
25231;SDS011;13176;51.140;6.290;2022-12-18T04:36:14;17.38;;;14.30;;
25231;SDS011;13176;51.140;6.290;2022-12-18T04:38:41;18.23;;;15.15;;
25231;SDS011;13176;51.140;6.290;2022-12-18T04:41:07;18.58;;;14.68;;
25231;SDS011;13176;51.140;6.290;2022-12-18T04:43:34;19.00;;;14.50;;
25231;SDS011;13176;51.140;6.290;2022-12-18T04:46:01;19.65;;;15.05;;
25231;SDS011;13176;51.140;6.290;2022-12-18T04:48:29;20.17;;;15.13;;
25231;SDS011;13176;51.140;6.290;2022-12-18T04:50:55;17.55;;;14.48;;
25231;SDS011;13176;51.140;6.290;2022-12-18T04:53:21;16.33;;;14.60;;
25231;SDS011;13176;51.140;6.290;2022-12-18T04:55:48;19.77;;;15.90;;
25231;SDS011;13176;51.140;6.290;2022-12-18T04:58:14;18.15;;;13.93;;
25231;SDS011;13176;51.140;6.290;2022-12-18T05:00:41;17.88;;;14.13;;
25231;SDS011;13176;51.140;6.290;2022-12-18T05:03:08;17.33;;;14.45;;
25231;SDS011;13176;51.140;6.290;2022-12-18T05:05:34;16.73;;;14.27;;
25231;SDS011;13176;51.140;6.290;2022-12-18T05:08:01;18.42;;;15.45;;
25231;SDS011;13176;51.140;6.290;2022-12-18T05:10:28;18.27;;;15.32;;
25231;SDS011;13176;51.140;6.290;2022-12-18T05:13:02;19.95;;;14.93;;
25231;SDS011;13176;51.140;6.290;2022-12-18T05:15:29;18.95;;;15.27;;
25231;SDS011;13176;51.140;6.290;2022-12-18T05:17:57;18.92;;;14.20;;
25231;SDS011;13176;51.140;6.290;2022-12-18T05:20:25;19.75;;;15.32;;
25231;SDS011;13176;51.140;6.290;2022-12-18T05:22:53;18.85;;;14.82;;
25231;SDS011;13176;51.140;6.290;2022-12-18T05:25:20;16.48;;;14.68;;
25231;SDS011;13176;51.140;6.290;2022-12-18T05:27:47;19.05;;;15.02;;
25231;SDS011;13176;51.140;6.290;2022-12-18T05:30:14;20.88;;;14.27;;
25231;SDS011;13176;51.140;6.290;2022-12-18T05:32:41;22.10;;;14.70;;
25231;SDS011;13176;51.140;6.290;2022-12-18T05:35:09;17.45;;;14.38;;
25231;SDS011;13176;51.140;6.290;2022-12-18T05:37:36;16.98;;;13.82;;
25231;SDS011;13176;51.140;6.290;2022-12-18T05:40:08;19.77;;;14.88;;
25231;SDS011;13176;51.140;6.290;2022-12-18T05:42:36;21.00;;;15.40;;
25231;SDS011;13176;51.140;6.290;2022-12-18T05:45:02;20.27;;;15.05;;
25231;SDS011;13176;51.140;6.290;2022-12-18T05:47:29;18.48;;;14.07;;
25231;SDS011;13176;51.140;6.290;2022-12-18T05:49:55;18.60;;;14.15;;
25231;SDS011;13176;51.140;6.290;2022-12-18T05:52:22;18.45;;;14.65;;
25231;SDS011;13176;51.140;6.290;2022-12-18T05:54:48;19.45;;;14.07;;
25231;SDS011;13176;51.140;6.290;2022-12-18T05:57:15;17.30;;;14.30;;
25231;SDS011;13176;51.140;6.290;2022-12-18T05:59:41;15.68;;;13.52;;
25231;SDS011;13176;51.140;6.290;2022-12-18T06:02:07;18.23;;;15.10;;
25231;SDS011;13176;51.140;6.290;2022-12-18T06:04:34;16.52;;;14.43;;
25231;SDS011;13176;51.140;6.290;2022-12-18T06:07:01;19.02;;;14.98;;
25231;SDS011;13176;51.140;6.290;2022-12-18T06:09:30;18.80;;;14.82;;
25231;SDS011;13176;51.140;6.290;2022-12-18T06:11:56;18.90;;;14.55;;
25231;SDS011;13176;51.140;6.290;2022-12-18T06:14:23;19.70;;;15.32;;
25231;SDS011;13176;51.140;6.290;2022-12-18T06:16:50;17.90;;;14.85;;
25231;SDS011;13176;51.140;6.290;2022-12-18T06:19:17;18.90;;;14.40;;
25231;SDS011;13176;51.140;6.290;2022-12-18T06:21:44;16.15;;;13.90;;
25231;SDS011;13176;51.140;6.290;2022-12-18T06:24:10;20.60;;;14.85;;
25231;SDS011;13176;51.140;6.290;2022-12-18T06:26:37;17.35;;;15.20;;
25231;SDS011;13176;51.140;6.290;2022-12-18T06:29:04;17.63;;;15.15;;
25231;SDS011;13176;51.140;6.290;2022-12-18T06:31:31;18.23;;;14.77;;
25231;SDS011;13176;51.140;6.290;2022-12-18T06:33:58;19.60;;;15.35;;
25231;SDS011;13176;51.140;6.290;2022-12-18T06:36:24;19.60;;;15.63;;
25231;SDS011;13176;51.140;6.290;2022-12-18T06:38:50;18.33;;;13.98;;
25231;SDS011;13176;51.140;6.290;2022-12-18T06:41:18;20.65;;;14.82;;
25231;SDS011;13176;51.140;6.290;2022-12-18T06:43:46;19.20;;;15.10;;
25231;SDS011;13176;51.140;6.290;2022-12-18T06:46:12;21.15;;;15.43;;
25231;SDS011;13176;51.140;6.290;2022-12-18T06:48:39;20.80;;;14.98;;
25231;SDS011;13176;51.140;6.290;2022-12-18T06:51:05;19.08;;;14.90;;
25231;SDS011;13176;51.140;6.290;2022-12-18T06:53:32;19.25;;;15.10;;
25231;SDS011;13176;51.140;6.290;2022-12-18T06:55:59;20.73;;;15.57;;
25231;SDS011;13176;51.140;6.290;2022-12-18T06:58:34;17.67;;;14.63;;
25231;SDS011;13176;51.140;6.290;2022-12-18T07:01:02;19.38;;;15.02;;
25231;SDS011;13176;51.140;6.290;2022-12-18T07:03:30;17.88;;;14.63;;
25231;SDS011;13176;51.140;6.290;2022-12-18T07:05:56;18.88;;;15.23;;
25231;SDS011;13176;51.140;6.290;2022-12-18T07:08:23;23.80;;;15.25;;
25231;SDS011;13176;51.140;6.290;2022-12-18T07:10:49;24.70;;;15.75;;
25231;SDS011;13176;51.140;6.290;2022-12-18T07:13:21;21.88;;;15.65;;
25231;SDS011;13176;51.140;6.290;2022-12-18T07:15:48;20.83;;;15.65;;
25231;SDS011;13176;51.140;6.290;2022-12-18T07:18:15;21.75;;;15.45;;
25231;SDS011;13176;51.140;6.290;2022-12-18T07:20:41;18.73;;;16.13;;
25231;SDS011;13176;51.140;6.290;2022-12-18T07:23:08;16.73;;;13.93;;
25231;SDS011;13176;51.140;6.290;2022-12-18T07:25:34;19.85;;;15.40;;
25231;SDS011;13176;51.140;6.290;2022-12-18T07:28:01;18.80;;;15.18;;
25231;SDS011;13176;51.140;6.290;2022-12-18T07:30:28;21.73;;;16.73;;
25231;SDS011;13176;51.140;6.290;2022-12-18T07:32:55;21.00;;;15.98;;
25231;SDS011;13176;51.140;6.290;2022-12-18T07:35:21;20.85;;;15.68;;
25231;SDS011;13176;51.140;6.290;2022-12-18T07:37:50;21.10;;;15.73;;
25231;SDS011;13176;51.140;6.290;2022-12-18T07:40:17;20.25;;;15.13;;
25231;SDS011;13176;51.140;6.290;2022-12-18T07:42:43;19.27;;;15.50;;
25231;SDS011;13176;51.140;6.290;2022-12-18T07:45:09;22.75;;;15.82;;
25231;SDS011;13176;51.140;6.290;2022-12-18T07:47:36;20.42;;;15.20;;
25231;SDS011;13176;51.140;6.290;2022-12-18T07:50:03;21.70;;;15.75;;
25231;SDS011;13176;51.140;6.290;2022-12-18T07:52:32;20.17;;;15.82;;
25231;SDS011;13176;51.140;6.290;2022-12-18T07:55:02;22.90;;;15.93;;
25231;SDS011;13176;51.140;6.290;2022-12-18T07:57:28;23.17;;;16.10;;
25231;SDS011;13176;51.140;6.290;2022-12-18T08:00:15;27.77;;;15.48;;
25231;SDS011;13176;51.140;6.290;2022-12-18T08:02:42;20.23;;;16.42;;
25231;SDS011;13176;51.140;6.290;2022-12-18T08:05:08;22.10;;;15.98;;
25231;SDS011;13176;51.140;6.290;2022-12-18T08:07:35;19.83;;;16.15;;
25231;SDS011;13176;51.140;6.290;2022-12-18T08:10:01;20.58;;;15.98;;
25231;SDS011;13176;51.140;6.290;2022-12-18T08:12:29;21.63;;;16.60;;
25231;SDS011;13176;51.140;6.290;2022-12-18T08:14:55;18.70;;;15.10;;
25231;SDS011;13176;51.140;6.290;2022-12-18T08:17:21;19.40;;;15.52;;
25231;SDS011;13176;51.140;6.290;2022-12-18T08:19:48;21.15;;;15.40;;
25231;SDS011;13176;51.140;6.290;2022-12-18T08:22:14;20.92;;;15.95;;
25231;SDS011;13176;51.140;6.290;2022-12-18T08:24:41;19.83;;;15.93;;
25231;SDS011;13176;51.140;6.290;2022-12-18T08:27:07;19.75;;;15.82;;
25231;SDS011;13176;51.140;6.290;2022-12-18T08:29:53;18.30;;;14.82;;
25231;SDS011;13176;51.140;6.290;2022-12-18T08:32:20;22.48;;;16.92;;
25231;SDS011;13176;51.140;6.290;2022-12-18T08:34:46;23.00;;;17.13;;
25231;SDS011;13176;51.140;6.290;2022-12-18T08:37:12;20.98;;;16.58;;
25231;SDS011;13176;51.140;6.290;2022-12-18T08:39:39;26.00;;;16.55;;
25231;SDS011;13176;51.140;6.290;2022-12-18T08:42:05;21.75;;;16.08;;
25231;SDS011;13176;51.140;6.290;2022-12-18T08:44:50;22.73;;;17.17;;
25231;SDS011;13176;51.140;6.290;2022-12-18T08:47:17;21.85;;;17.02;;
25231;SDS011;13176;51.140;6.290;2022-12-18T08:49:43;19.65;;;16.40;;
25231;SDS011;13176;51.140;6.290;2022-12-18T08:52:09;20.08;;;16.88;;
25231;SDS011;13176;51.140;6.290;2022-12-18T08:54:36;23.33;;;17.42;;
25231;SDS011;13176;51.140;6.290;2022-12-18T08:57:02;20.90;;;17.38;;
25231;SDS011;13176;51.140;6.290;2022-12-18T08:59:28;21.25;;;16.27;;
25231;SDS011;13176;51.140;6.290;2022-12-18T09:01:55;22.42;;;16.85;;
25231;SDS011;13176;51.140;6.290;2022-12-18T09:04:22;22.60;;;17.52;;
25231;SDS011;13176;51.140;6.290;2022-12-18T09:06:48;19.90;;;17.05;;
25231;SDS011;13176;51.140;6.290;2022-12-18T09:09:15;21.88;;;17.13;;
25231;SDS011;13176;51.140;6.290;2022-12-18T09:11:41;18.90;;;15.85;;
25231;SDS011;13176;51.140;6.290;2022-12-18T09:14:08;20.35;;;15.98;;
25231;SDS011;13176;51.140;6.290;2022-12-18T09:16:35;24.02;;;17.58;;
25231;SDS011;13176;51.140;6.290;2022-12-18T09:19:02;23.15;;;18.15;;
25231;SDS011;13176;51.140;6.290;2022-12-18T09:21:31;22.55;;;17.77;;
25231;SDS011;13176;51.140;6.290;2022-12-18T09:24:03;21.60;;;17.13;;
25231;SDS011;13176;51.140;6.290;2022-12-18T09:26:33;20.10;;;16.27;;
25231;SDS011;13176;51.140;6.290;2022-12-18T09:28:59;19.42;;;16.25;;
25231;SDS011;13176;51.140;6.290;2022-12-18T09:31:26;20.38;;;16.92;;
25231;SDS011;13176;51.140;6.290;2022-12-18T09:33:52;21.92;;;17.33;;
25231;SDS011;13176;51.140;6.290;2022-12-18T09:36:21;20.27;;;15.70;;
25231;SDS011;13176;51.140;6.290;2022-12-18T09:38:47;23.20;;;17.90;;
25231;SDS011;13176;51.140;6.290;2022-12-18T09:46:38;21.60;;;16.33;;
25231;SDS011;13176;51.140;6.290;2022-12-18T09:49:11;20.00;;;15.65;;
25231;SDS011;13176;51.140;6.290;2022-12-18T09:51:43;19.08;;;14.77;;
25231;SDS011;13176;51.140;6.290;2022-12-18T09:54:18;20.37;;;14.93;;
25231;SDS011;13176;51.140;6.290;2022-12-18T09:56:48;20.52;;;15.10;;
25231;SDS011;13176;51.140;6.290;2022-12-18T09:59:20;20.83;;;15.63;;
25231;SDS011;13176;51.140;6.290;2022-12-18T10:01:50;19.75;;;14.90;;
25231;SDS011;13176;51.140;6.290;2022-12-18T10:04:29;20.45;;;15.30;;
25231;SDS011;13176;51.140;6.290;2022-12-18T10:07:00;16.98;;;15.15;;
25231;SDS011;13176;51.140;6.290;2022-12-18T10:13:00;21.08;;;14.68;;
25231;SDS011;13176;51.140;6.290;2022-12-18T10:20:49;18.27;;;14.75;;
25231;SDS011;13176;51.140;6.290;2022-12-18T10:23:30;18.58;;;15.05;;
25231;SDS011;13176;51.140;6.290;2022-12-18T10:26:04;20.02;;;14.88;;
25231;SDS011;13176;51.140;6.290;2022-12-18T10:28:33;20.80;;;15.40;;
25231;SDS011;13176;51.140;6.290;2022-12-18T10:31:02;20.77;;;15.52;;
25231;SDS011;13176;51.140;6.290;2022-12-18T10:33:32;19.02;;;14.88;;
25231;SDS011;13176;51.140;6.290;2022-12-18T10:35:59;24.40;;;15.32;;
25231;SDS011;13176;51.140;6.290;2022-12-18T10:38:27;19.45;;;14.45;;
25231;SDS011;13176;51.140;6.290;2022-12-18T10:40:56;17.02;;;14.30;;
25231;SDS011;13176;51.140;6.290;2022-12-18T10:43:30;20.83;;;14.52;;
25231;SDS011;13176;51.140;6.290;2022-12-18T10:48:28;21.40;;;15.07;;
25231;SDS011;13176;51.140;6.290;2022-12-18T10:50:56;17.65;;;14.77;;
25231;SDS011;13176;51.140;6.290;2022-12-18T10:53:39;19.15;;;15.07;;
25231;SDS011;13176;51.140;6.290;2022-12-18T10:56:08;21.00;;;15.60;;
25231;SDS011;13176;51.140;6.290;2022-12-18T10:58:37;19.75;;;15.52;;
25231;SDS011;13176;51.140;6.290;2022-12-18T11:01:11;18.17;;;14.00;;
25231;SDS011;13176;51.140;6.290;2022-12-18T11:03:43;19.55;;;14.90;;
25231;SDS011;13176;51.140;6.290;2022-12-18T11:06:15;17.10;;;14.10;;
25231;SDS011;13176;51.140;6.290;2022-12-18T11:08:46;19.58;;;14.57;;
25231;SDS011;13176;51.140;6.290;2022-12-18T11:11:24;25.48;;;14.20;;
25231;SDS011;13176;51.140;6.290;2022-12-18T11:14:12;19.55;;;15.40;;
25231;SDS011;13176;51.140;6.290;2022-12-18T11:16:50;19.27;;;13.13;;
25231;SDS011;13176;51.140;6.290;2022-12-18T11:19:43;17.38;;;14.32;;
25231;SDS011;13176;51.140;6.290;2022-12-18T11:22:26;18.58;;;14.52;;
25231;SDS011;13176;51.140;6.290;2022-12-18T11:27:47;18.85;;;14.00;;
25231;SDS011;13176;51.140;6.290;2022-12-18T11:30:22;18.48;;;13.77;;
25231;SDS011;13176;51.140;6.290;2022-12-18T11:33:00;18.08;;;14.68;;
25231;SDS011;13176;51.140;6.290;2022-12-18T11:38:26;16.50;;;14.15;;
25231;SDS011;13176;51.140;6.290;2022-12-18T11:43:33;22.60;;;14.23;;
25231;SDS011;13176;51.140;6.290;2022-12-18T11:46:09;17.95;;;15.15;;
25231;SDS011;13176;51.140;6.290;2022-12-18T11:48:49;18.77;;;14.57;;
25231;SDS011;13176;51.140;6.290;2022-12-18T11:51:25;19.70;;;15.10;;
25231;SDS011;13176;51.140;6.290;2022-12-18T11:53:58;20.33;;;14.18;;
25231;SDS011;13176;51.140;6.290;2022-12-18T11:59:07;20.70;;;14.57;;
25231;SDS011;13176;51.140;6.290;2022-12-18T12:18:36;17.88;;;13.43;;
25231;SDS011;13176;51.140;6.290;2022-12-18T12:26:55;18.30;;;13.60;;
25231;SDS011;13176;51.140;6.290;2022-12-18T12:29:54;22.52;;;13.60;;
25231;SDS011;13176;51.140;6.290;2022-12-18T12:35:12;29.20;;;14.43;;
25231;SDS011;13176;51.140;6.290;2022-12-18T12:40:31;16.17;;;13.90;;
25231;SDS011;13176;51.140;6.290;2022-12-18T12:45:53;17.80;;;14.23;;
25231;SDS011;13176;51.140;6.290;2022-12-18T12:48:37;17.20;;;13.65;;
25231;SDS011;13176;51.140;6.290;2022-12-18T12:51:15;16.83;;;14.10;;
25231;SDS011;13176;51.140;6.290;2022-12-18T12:53:45;25.80;;;14.43;;
25231;SDS011;13176;51.140;6.290;2022-12-18T12:56:13;19.13;;;13.90;;
25231;SDS011;13176;51.140;6.290;2022-12-18T13:01:28;19.08;;;14.50;;
25231;SDS011;13176;51.140;6.290;2022-12-18T13:04:20;16.77;;;13.23;;
25231;SDS011;13176;51.140;6.290;2022-12-18T13:09:19;19.80;;;14.50;;
25231;SDS011;13176;51.140;6.290;2022-12-18T13:11:46;17.58;;;14.43;;
25231;SDS011;13176;51.140;6.290;2022-12-18T13:14:33;22.08;;;14.15;;
25231;SDS011;13176;51.140;6.290;2022-12-18T13:19:50;19.00;;;15.00;;
25231;SDS011;13176;51.140;6.290;2022-12-18T13:22:20;21.05;;;15.00;;
25231;SDS011;13176;51.140;6.290;2022-12-18T13:24:48;19.20;;;14.68;;
25231;SDS011;13176;51.140;6.290;2022-12-18T13:30:40;18.27;;;14.75;;
25231;SDS011;13176;51.140;6.290;2022-12-18T13:40:59;20.10;;;15.00;;
25231;SDS011;13176;51.140;6.290;2022-12-18T13:43:29;22.42;;;15.15;;
25231;SDS011;13176;51.140;6.290;2022-12-18T13:48:27;21.10;;;14.75;;
25231;SDS011;13176;51.140;6.290;2022-12-18T13:51:05;26.10;;;14.35;;
25231;SDS011;13176;51.140;6.290;2022-12-18T13:53:37;19.23;;;15.43;;
25231;SDS011;13176;51.140;6.290;2022-12-18T13:56:09;20.92;;;14.85;;
25231;SDS011;13176;51.140;6.290;2022-12-18T13:58:42;25.38;;;15.90;;
25231;SDS011;13176;51.140;6.290;2022-12-18T14:01:22;19.23;;;14.90;;
25231;SDS011;13176;51.140;6.290;2022-12-18T14:03:49;19.70;;;14.85;;
25231;SDS011;13176;51.140;6.290;2022-12-18T14:06:16;23.23;;;15.23;;
25231;SDS011;13176;51.140;6.290;2022-12-18T14:08:43;19.75;;;15.73;;
25231;SDS011;13176;51.140;6.290;2022-12-18T14:11:18;22.13;;;14.98;;
25231;SDS011;13176;51.140;6.290;2022-12-18T14:13:48;19.60;;;15.45;;
25231;SDS011;13176;51.140;6.290;2022-12-18T14:16:16;24.95;;;16.25;;
25231;SDS011;13176;51.140;6.290;2022-12-18T14:18:48;22.92;;;15.18;;
25231;SDS011;13176;51.140;6.290;2022-12-18T14:21:27;22.17;;;15.70;;
25231;SDS011;13176;51.140;6.290;2022-12-18T14:24:15;19.98;;;15.02;;
25231;SDS011;13176;51.140;6.290;2022-12-18T14:26:45;21.52;;;14.85;;
25231;SDS011;13176;51.140;6.290;2022-12-18T14:29:22;26.30;;;16.15;;
25231;SDS011;13176;51.140;6.290;2022-12-18T14:32:10;22.25;;;15.40;;
25231;SDS011;13176;51.140;6.290;2022-12-18T14:34:47;26.13;;;16.52;;
25231;SDS011;13176;51.140;6.290;2022-12-18T14:37:17;23.33;;;15.57;;
25231;SDS011;13176;51.140;6.290;2022-12-18T14:40:00;20.55;;;14.98;;
25231;SDS011;13176;51.140;6.290;2022-12-18T14:42:36;21.95;;;14.93;;
25231;SDS011;13176;51.140;6.290;2022-12-18T14:48:17;23.15;;;15.65;;
25231;SDS011;13176;51.140;6.290;2022-12-18T14:50:56;20.33;;;15.85;;
25231;SDS011;13176;51.140;6.290;2022-12-18T14:53:32;23.77;;;15.07;;
25231;SDS011;13176;51.140;6.290;2022-12-18T14:56:03;22.50;;;15.40;;
25231;SDS011;13176;51.140;6.290;2022-12-18T14:58:39;20.75;;;16.13;;
25231;SDS011;13176;51.140;6.290;2022-12-18T15:01:17;18.75;;;15.70;;
25231;SDS011;13176;51.140;6.290;2022-12-18T15:03:45;20.02;;;15.88;;
25231;SDS011;13176;51.140;6.290;2022-12-18T15:06:24;23.27;;;15.68;;
25231;SDS011;13176;51.140;6.290;2022-12-18T15:08:53;22.98;;;16.67;;
25231;SDS011;13176;51.140;6.290;2022-12-18T15:11:33;20.08;;;15.18;;
25231;SDS011;13176;51.140;6.290;2022-12-18T15:16:52;19.92;;;16.05;;
25231;SDS011;13176;51.140;6.290;2022-12-18T15:19:21;23.75;;;17.35;;
25231;SDS011;13176;51.140;6.290;2022-12-18T15:21:49;20.70;;;16.45;;
25231;SDS011;13176;51.140;6.290;2022-12-18T15:24:17;19.73;;;15.43;;
25231;SDS011;13176;51.140;6.290;2022-12-18T15:26:46;18.52;;;15.02;;
25231;SDS011;13176;51.140;6.290;2022-12-18T15:29:20;24.77;;;17.00;;
25231;SDS011;13176;51.140;6.290;2022-12-18T15:31:59;19.55;;;16.10;;
25231;SDS011;13176;51.140;6.290;2022-12-18T15:34:29;19.23;;;14.95;;
25231;SDS011;13176;51.140;6.290;2022-12-18T15:36:57;19.67;;;16.05;;
25231;SDS011;13176;51.140;6.290;2022-12-18T15:39:23;22.35;;;16.40;;
25231;SDS011;13176;51.140;6.290;2022-12-18T15:41:51;22.08;;;16.42;;
25231;SDS011;13176;51.140;6.290;2022-12-18T15:44:36;23.33;;;16.73;;
25231;SDS011;13176;51.140;6.290;2022-12-18T15:47:07;24.25;;;17.00;;
25231;SDS011;13176;51.140;6.290;2022-12-18T15:49:39;21.90;;;17.20;;
25231;SDS011;13176;51.140;6.290;2022-12-18T15:52:05;22.92;;;17.33;;
25231;SDS011;13176;51.140;6.290;2022-12-18T15:54:32;20.35;;;15.85;;
25231;SDS011;13176;51.140;6.290;2022-12-18T15:57:18;23.63;;;16.77;;
25231;SDS011;13176;51.140;6.290;2022-12-18T15:59:51;20.25;;;15.63;;
25231;SDS011;13176;51.140;6.290;2022-12-18T16:02:19;24.63;;;17.45;;
25231;SDS011;13176;51.140;6.290;2022-12-18T16:04:50;26.23;;;18.40;;
25231;SDS011;13176;51.140;6.290;2022-12-18T16:07:18;24.80;;;17.50;;
25231;SDS011;13176;51.140;6.290;2022-12-18T16:09:50;22.63;;;17.48;;
25231;SDS011;13176;51.140;6.290;2022-12-18T16:12:18;23.90;;;16.80;;
25231;SDS011;13176;51.140;6.290;2022-12-18T16:14:46;20.98;;;16.63;;
25231;SDS011;13176;51.140;6.290;2022-12-18T16:17:13;23.83;;;17.15;;
25231;SDS011;13176;51.140;6.290;2022-12-18T16:19:42;22.63;;;17.15;;
25231;SDS011;13176;51.140;6.290;2022-12-18T16:22:15;22.75;;;16.27;;
25231;SDS011;13176;51.140;6.290;2022-12-18T16:24:45;24.15;;;16.40;;
25231;SDS011;13176;51.140;6.290;2022-12-18T16:27:12;29.05;;;17.13;;